Time;durP1;ratioP1;P1;durP2;ratioP2;P2;SDS_P1;SDS_P2;PMS_P1;PMS_P2;Temp;Humidity;BMP_temperature;BMP_pressure;BME280_temperature;BME280_humidity;BME280_pressure;Samples;Min_cycle;Max_cycle;Signal;HPM_P1;HPM_P2
2022/01/08 00:00:26;;;;;;;6.18;1.83;;;1.60;99.90;;;;;;5030123;28;20029;-61
2022/01/08 00:02:52;;;;;;;6.18;1.23;;;1.50;99.90;;;;;;5029972;28;20042;-61
2022/01/08 00:05:18;;;;;;;8.80;2.05;;;1.50;99.90;;;;;;5030206;28;20033;-61
2022/01/08 00:07:44;;;;;;;4.60;1.58;;;1.50;99.90;;;;;;5029596;28;20053;-61
2022/01/08 00:10:10;;;;;;;6.55;1.48;;;1.50;99.90;;;;;;5029935;28;20041;-61
2022/01/08 00:12:36;;;;;;;5.65;1.30;;;1.40;99.90;;;;;;5029705;28;20730;-63
2022/01/08 00:15:02;;;;;;;4.00;1.17;;;1.40;99.90;;;;;;5029907;28;20111;-61
2022/01/08 00:17:28;;;;;;;3.85;1.50;;;1.40;99.90;;;;;;5026043;28;20039;-61
2022/01/08 00:19:54;;;;;;;5.57;1.27;;;1.40;99.90;;;;;;5029268;28;20120;-61
2022/01/08 00:22:19;;;;;;;7.43;2.33;;;1.30;99.90;;;;;;5029827;28;20040;-61
2022/01/08 00:24:45;;;;;;;8.48;1.65;;;1.30;99.90;;;;;;5029560;28;20069;-61
2022/01/08 00:27:10;;;;;;;7.10;1.60;;;1.30;99.90;;;;;;5030328;28;20537;-62
2022/01/08 00:29:36;;;;;;;5.30;1.38;;;1.30;99.90;;;;;;5029484;28;20045;-61
2022/01/08 00:32:02;;;;;;;6.05;1.92;;;1.30;99.90;;;;;;5029458;28;20121;-60
2022/01/08 00:34:27;;;;;;;4.97;1.50;;;1.30;99.90;;;;;;5029991;28;20096;-63
2022/01/08 00:36:53;;;;;;;11.18;2.80;;;1.20;99.90;;;;;;5029490;28;20504;-63
2022/01/08 00:39:18;;;;;;;5.47;1.50;;;1.20;99.90;;;;;;5028327;28;20038;-61
2022/01/08 00:41:44;;;;;;;3.33;1.42;;;1.20;99.90;;;;;;5024571;28;20041;-61
2022/01/08 00:44:10;;;;;;;6.38;1.33;;;1.20;99.90;;;;;;5027445;28;20030;-61
2022/01/08 00:46:35;;;;;;;6.20;1.23;;;1.20;99.90;;;;;;5029265;28;20034;-61
2022/01/08 00:49:04;;;;;;;3.53;0.95;;;1.10;99.90;;;;;;5029659;28;20055;-61
2022/01/08 00:51:29;;;;;;;7.03;1.65;;;1.10;99.90;;;;;;5029103;28;20037;-60
2022/01/08 00:53:55;;;;;;;5.85;1.23;;;1.10;99.90;;;;;;5020980;28;20033;-61
2022/01/08 00:56:21;;;;;;;8.00;1.80;;;1.10;99.90;;;;;;5029324;28;20042;-62
2022/01/08 00:58:46;;;;;;;3.10;1.00;;;1.10;99.90;;;;;;5028597;28;20176;-61
2022/01/08 01:01:12;;;;;;;3.95;1.27;;;1.10;99.90;;;;;;5028861;28;20033;-61
2022/01/08 01:03:37;;;;;;;5.95;1.20;;;1.00;99.90;;;;;;5028998;28;20034;-61
2022/01/08 01:06:04;;;;;;;6.32;1.20;;;1.00;99.90;;;;;;5029189;28;20037;-61
2022/01/08 01:08:29;;;;;;;7.70;1.10;;;1.00;99.90;;;;;;5030397;28;20033;-61
2022/01/08 01:10:55;;;;;;;8.30;1.25;;;1.00;99.90;;;;;;5033741;28;20486;-61
2022/01/08 01:13:21;;;;;;;9.93;1.75;;;1.00;99.90;;;;;;5036009;28;20536;-61
2022/01/08 01:15:46;;;;;;;3.17;1.10;;;1.00;99.90;;;;;;5035263;28;20038;-61
2022/01/08 01:18:12;;;;;;;3.42;1.20;;;1.00;99.90;;;;;;5036032;28;20044;-61
2022/01/08 01:20:38;;;;;;;5.72;1.50;;;1.00;99.90;;;;;;5034901;28;20256;-61
2022/01/08 01:23:10;;;;;;;7.13;1.27;;;0.90;99.90;;;;;;5036104;28;20037;-61
2022/01/08 01:25:49;;;;;;;7.25;0.93;;;0.90;99.90;;;;;;5035493;28;20030;-61
2022/01/08 01:47:10;;;;;;;7.63;1.10;;;0.90;99.90;;;;;;5037346;28;20040;-61
2022/01/08 01:49:39;;;;;;;14.70;2.20;;;0.90;99.90;;;;;;5039922;28;20033;-62
2022/01/08 01:52:08;;;;;;;4.50;1.27;;;0.80;99.90;;;;;;5018792;28;20445;-61
2022/01/08 01:54:35;;;;;;;5.85;1.27;;;0.80;99.90;;;;;;5028834;28;20069;-63
2022/01/08 01:57:03;;;;;;;4.90;0.90;;;0.90;99.90;;;;;;5035849;28;20473;-61
2022/01/08 01:59:31;;;;;;;8.20;1.42;;;0.90;99.90;;;;;;5036246;28;20033;-61
2022/01/08 02:01:58;;;;;;;3.20;1.10;;;0.90;99.90;;;;;;5035590;28;20061;-61
2022/01/08 02:04:23;;;;;;;6.38;1.23;;;0.90;99.90;;;;;;5036156;28;20057;-61
2022/01/08 02:06:49;;;;;;;4.10;0.95;;;0.90;99.90;;;;;;5035221;28;20053;-61
2022/01/08 02:09:15;;;;;;;7.72;1.73;;;0.90;99.90;;;;;;5035578;28;20038;-61
2022/01/08 02:12:01;;;;;;;5.60;1.70;;;0.90;99.90;;;;;;5033647;28;20033;-62
2022/01/08 02:14:29;;;;;;;3.15;0.93;;;0.90;99.90;;;;;;5028823;28;20030;-62
2022/01/08 02:16:54;;;;;;;5.15;1.02;;;1.00;99.90;;;;;;5035732;28;20371;-62
2022/01/08 02:19:20;;;;;;;13.07;2.05;;;1.00;99.90;;;;;;5036453;28;20095;-62
2022/01/08 02:21:52;;;;;;;6.03;1.10;;;1.00;99.90;;;;;;5031322;28;20026;-61
2022/01/08 02:24:18;;;;;;;7.45;1.50;;;1.00;99.90;;;;;;5033304;28;20039;-61
2022/01/08 02:26:43;;;;;;;6.18;0.90;;;1.00;99.90;;;;;;5032183;28;20038;-61
2022/01/08 02:29:13;;;;;;;8.70;1.40;;;1.00;99.90;;;;;;5033167;28;20038;-63
2022/01/08 02:31:39;;;;;;;10.27;1.42;;;1.00;99.90;;;;;;5034328;28;20033;-63
2022/01/08 02:34:05;;;;;;;10.80;1.73;;;0.90;99.90;;;;;;5034198;28;20033;-62
2022/01/08 02:36:32;;;;;;;6.22;1.10;;;0.90;99.90;;;;;;5033934;28;20109;-62
2022/01/08 02:38:57;;;;;;;6.72;1.45;;;0.90;99.90;;;;;;5033829;28;20057;-62
2022/01/08 02:41:23;;;;;;;4.68;1.27;;;0.90;99.90;;;;;;5031426;28;20116;-62
2022/01/08 02:43:53;;;;;;;6.68;1.20;;;0.90;99.90;;;;;;5032073;28;20176;-63
2022/01/08 02:46:19;;;;;;;9.18;1.33;;;0.90;99.90;;;;;;5031265;28;20120;-62
2022/01/08 02:48:45;;;;;;;9.80;1.33;;;0.90;99.90;;;;;;5031761;28;20416;-62
2022/01/08 02:51:10;;;;;;;4.30;1.13;;;0.90;99.90;;;;;;5032350;28;20116;-62
2022/01/08 02:53:36;;;;;;;4.97;0.77;;;0.90;99.90;;;;;;5031792;28;20033;-62
2022/01/08 02:56:01;;;;;;;4.35;1.17;;;0.90;99.90;;;;;;5032032;28;20041;-63
2022/01/08 02:58:28;;;;;;;6.57;1.13;;;0.90;99.90;;;;;;5032213;28;20043;-62
2022/01/08 03:00:57;;;;;;;7.00;0.82;;;0.90;99.90;;;;;;5031309;28;20088;-62
2022/01/08 03:03:23;;;;;;;14.10;2.83;;;0.90;99.90;;;;;;5030267;28;20037;-61
2022/01/08 03:05:48;;;;;;;6.90;1.48;;;0.90;99.90;;;;;;5031315;28;20091;-62
2022/01/08 03:08:14;;;;;;;7.43;1.33;;;0.90;99.90;;;;;;5031499;28;20112;-61
2022/01/08 03:10:40;;;;;;;8.85;1.42;;;0.90;99.90;;;;;;5030772;28;20111;-62
2022/01/08 03:13:06;;;;;;;5.57;1.20;;;0.80;99.90;;;;;;5031152;28;20033;-61
2022/01/08 03:15:37;;;;;;;9.07;1.38;;;0.80;99.90;;;;;;5031357;28;20136;-61
2022/01/08 03:18:04;;;;;;;4.68;0.68;;;0.80;99.90;;;;;;5030636;28;20089;-61
2022/01/08 03:20:30;;;;;;;3.72;0.77;;;0.80;99.90;;;;;;5030965;28;20033;-62
2022/01/08 03:23:02;;;;;;;1.83;0.70;;;0.80;99.90;;;;;;5030712;28;20095;-61
2022/01/08 03:25:29;;;;;;;5.80;0.77;;;0.80;99.90;;;;;;5031317;28;20041;-61
2022/01/08 03:27:54;;;;;;;7.22;0.80;;;0.80;99.90;;;;;;5030688;28;20041;-62
2022/01/08 03:30:20;;;;;;;12.98;1.77;;;0.80;99.90;;;;;;5031216;28;20038;-63
2022/01/08 03:32:46;;;;;;;3.55;0.82;;;0.80;99.90;;;;;;5022706;28;20041;-61
2022/01/08 03:35:12;;;;;;;3.28;0.70;;;0.70;99.90;;;;;;5031482;28;20075;-62
2022/01/08 03:37:37;;;;;;;5.53;0.73;;;0.70;99.90;;;;;;5030925;28;20030;-61
2022/01/08 03:40:05;;;;;;;4.88;0.77;;;0.70;99.90;;;;;;5031408;28;20057;-61
2022/01/08 03:42:31;;;;;;;4.15;0.93;;;0.70;99.90;;;;;;5030300;28;20037;-62
2022/01/08 03:44:56;;;;;;;2.58;0.68;;;0.70;99.90;;;;;;5030873;28;20025;-61
2022/01/08 03:49:54;;;;;;;10.23;0.90;;;0.60;99.90;;;;;;5030417;28;20501;-62
2022/01/08 03:52:20;;;;;;;4.50;1.10;;;0.60;99.90;;;;;;5031096;28;20032;-62
2022/01/08 03:54:46;;;;;;;7.38;0.82;;;0.60;99.90;;;;;;5030594;28;20037;-61
2022/01/08 03:57:12;;;;;;;6.50;0.80;;;0.60;99.90;;;;;;5030878;28;20484;-61
2022/01/08 03:59:38;;;;;;;2.60;0.70;;;0.60;99.90;;;;;;5030224;28;20589;-61
2022/01/08 04:02:04;;;;;;;4.85;1.23;;;0.60;99.90;;;;;;5030654;28;20075;-61
2022/01/08 04:04:30;;;;;;;7.85;1.63;;;0.60;99.90;;;;;;5031276;28;20025;-62
2022/01/08 04:06:56;;;;;;;4.25;0.90;;;0.50;99.90;;;;;;5029804;28;20615;-62
2022/01/08 04:09:21;;;;;;;7.03;0.98;;;0.50;99.90;;;;;;5031194;28;20033;-61
2022/01/08 04:11:47;;;;;;;5.88;0.70;;;0.50;99.90;;;;;;5029890;28;20413;-62
2022/01/08 04:14:14;;;;;;;3.38;0.80;;;0.50;99.90;;;;;;5030565;28;20031;-61
2022/01/08 04:16:44;;;;;;;13.30;1.38;;;0.50;99.90;;;;;;5030245;28;20052;-63
2022/01/08 04:19:10;;;;;;;3.58;0.68;;;0.40;99.90;;;;;;5029388;28;20045;-62
2022/01/08 04:24:05;;;;;;;6.20;0.98;;;0.40;99.90;;;;;;5030324;28;20033;-63
2022/01/08 04:26:31;;;;;;;4.03;0.63;;;0.40;99.90;;;;;;5030172;28;20753;-62
2022/01/08 04:28:57;;;;;;;2.83;0.70;;;0.40;99.90;;;;;;5028377;28;20040;-64
2022/01/08 04:31:23;;;;;;;11.52;2.03;;;0.30;99.90;;;;;;5030028;28;20030;-61
2022/01/08 04:33:50;;;;;;;5.05;0.75;;;0.30;99.90;;;;;;5029677;28;20037;-61
2022/01/08 04:36:17;;;;;;;5.35;1.20;;;0.30;99.90;;;;;;5029776;28;20132;-62
2022/01/08 04:38:43;;;;;;;5.13;0.82;;;0.30;99.90;;;;;;5021361;28;20449;-62
2022/01/08 04:41:09;;;;;;;5.50;1.25;;;0.40;99.90;;;;;;5029814;28;20041;-62
2022/01/08 04:43:37;;;;;;;7.97;1.77;;;0.50;99.90;;;;;;5029460;28;20489;-62
2022/01/08 04:46:03;;;;;;;5.85;0.95;;;0.50;99.90;;;;;;5029616;28;20104;-62
2022/01/08 04:48:29;;;;;;;4.13;1.02;;;0.50;99.90;;;;;;5028506;28;20084;-61
2022/01/08 04:50:54;;;;;;;9.80;1.10;;;0.50;99.90;;;;;;5029439;28;20496;-61
2022/01/08 04:53:20;;;;;;;9.93;1.33;;;0.50;99.90;;;;;;5028041;28;20026;-61
2022/01/08 04:55:46;;;;;;;7.35;1.13;;;0.60;99.90;;;;;;5029327;28;20580;-63
2022/01/08 04:58:11;;;;;;;7.45;1.13;;;0.60;99.90;;;;;;5021810;28;20040;-62
2022/01/08 05:00:37;;;;;;;3.13;0.90;;;0.70;99.90;;;;;;5029067;28;20433;-61
2022/01/08 05:03:03;;;;;;;5.50;1.10;;;0.70;99.90;;;;;;5029878;28;20033;-64
2022/01/08 05:05:28;;;;;;;4.68;1.23;;;0.70;99.90;;;;;;5029908;28;20037;-63
2022/01/08 05:07:55;;;;;;;4.40;1.08;;;0.70;99.90;;;;;;5029118;28;20061;-61
2022/01/08 05:10:20;;;;;;;2.45;0.57;;;0.70;99.90;;;;;;5029418;28;20541;-62
2022/01/08 05:12:46;;;;;;;6.60;1.13;;;0.70;99.90;;;;;;5029474;28;20061;-62
2022/01/08 05:15:12;;;;;;;2.65;0.73;;;0.70;99.90;;;;;;5029290;28;20041;-62
2022/01/08 05:17:39;;;;;;;3.78;0.65;;;0.70;99.90;;;;;;5029440;28;20041;-63
2022/01/08 05:20:10;;;;;;;3.90;1.02;;;0.70;99.90;;;;;;5029626;28;20045;-62
2022/01/08 05:25:19;;;;;;;4.13;0.85;;;0.80;99.90;;;;;;5022400;28;20115;-62
2022/01/08 05:27:46;;;;;;;5.15;0.80;;;0.80;99.90;;;;;;5022396;28;20037;-62
2022/01/08 05:30:15;;;;;;;4.65;1.17;;;0.70;99.90;;;;;;5029210;28;20120;-61
2022/01/08 05:32:40;;;;;;;3.80;0.95;;;0.70;99.90;;;;;;5021093;28;20103;-63
2022/01/08 05:35:06;;;;;;;3.95;1.00;;;0.70;99.90;;;;;;5028888;28;20033;-63
2022/01/08 05:37:32;;;;;;;3.17;0.77;;;0.70;99.90;;;;;;5029302;28;20041;-62
2022/01/08 05:39:58;;;;;;;3.60;1.00;;;0.60;99.90;;;;;;5028516;28;20490;-61
2022/01/08 05:42:24;;;;;;;5.20;0.98;;;0.60;99.90;;;;;;5029123;28;20044;-62
2022/01/08 05:44:49;;;;;;;6.80;1.30;;;0.60;99.90;;;;;;5028318;28;20409;-63
2022/01/08 05:47:15;;;;;;;13.30;1.70;;;0.60;99.90;;;;;;5029183;28;20493;-62
2022/01/08 05:49:41;;;;;;;3.20;1.00;;;0.60;99.90;;;;;;5028360;28;20048;-62
2022/01/08 05:52:07;;;;;;;4.18;0.90;;;0.60;99.90;;;;;;5027398;28;20400;-62
2022/01/08 05:54:33;;;;;;;7.18;2.25;;;0.60;99.90;;;;;;5028934;28;20117;-61
2022/01/08 05:56:59;;;;;;;10.60;1.77;;;0.60;99.90;;;;;;5031377;28;20116;-62
2022/01/08 05:59:26;;;;;;;4.32;1.00;;;0.60;99.90;;;;;;5032420;28;20112;-61
2022/01/08 06:01:53;;;;;;;4.32;1.10;;;0.60;99.90;;;;;;5031938;28;20033;-60
2022/01/08 06:04:19;;;;;;;5.43;1.20;;;0.70;99.90;;;;;;5032695;28;20067;-61
2022/01/08 06:06:45;;;;;;;6.18;1.70;;;0.70;99.90;;;;;;5032364;28;20031;-62
2022/01/08 06:09:11;;;;;;;8.00;1.83;;;0.80;99.90;;;;;;5032398;28;20040;-61
2022/01/08 06:11:37;;;;;;;10.95;2.45;;;0.80;99.90;;;;;;5031995;28;20037;-63
2022/01/08 06:14:02;;;;;;;6.63;1.20;;;0.90;99.90;;;;;;5032401;28;20116;-63
2022/01/08 06:16:33;;;;;;;4.50;1.65;;;0.90;99.90;;;;;;5032728;28;20041;-61
2022/01/08 06:18:59;;;;;;;;;;;0.90;99.90;;;;;;5031224;28;20464;-62
2022/01/08 06:21:25;;;;;;;3.38;1.70;;;1.00;99.90;;;;;;5032252;28;20004;-62
2022/01/08 06:23:50;;;;;;;6.93;1.45;;;1.00;99.90;;;;;;5032752;28;20121;-61
2022/01/08 06:26:16;;;;;;;5.50;1.38;;;1.10;99.90;;;;;;5033100;28;20038;-61
2022/01/08 06:28:41;;;;;;;6.82;1.33;;;1.10;99.90;;;;;;5031577;28;20507;-63
2022/01/08 06:31:07;;;;;;;14.50;1.33;;;1.20;99.90;;;;;;5032034;28;20068;-62
2022/01/08 06:33:32;;;;;;;4.35;1.33;;;1.20;99.90;;;;;;5031983;28;20037;-61
2022/01/08 06:35:58;;;;;;;4.85;1.20;;;1.20;99.90;;;;;;5031640;28;20050;-61
2022/01/08 06:38:24;;;;;;;7.65;1.58;;;1.20;99.90;;;;;;5031971;28;20041;-62
2022/01/08 06:40:49;;;;;;;8.25;2.25;;;1.30;99.90;;;;;;5031196;28;20034;-62
2022/01/08 06:43:15;;;;;;;4.80;1.08;;;1.30;99.90;;;;;;5023735;28;20037;-61
2022/01/08 06:45:40;;;;;;;13.30;1.63;;;1.30;99.90;;;;;;5030972;28;20045;-62
2022/01/08 06:48:06;;;;;;;4.88;1.13;;;1.20;99.90;;;;;;5031862;28;20026;-62
2022/01/08 06:50:32;;;;;;;11.45;2.63;;;1.20;99.90;;;;;;5031324;28;20508;-62
2022/01/08 06:52:57;;;;;;;4.90;1.00;;;1.20;99.90;;;;;;5031142;28;20516;-61
2022/01/08 06:55:23;;;;;;;4.55;1.10;;;1.20;99.90;;;;;;5031458;28;20124;-61
2022/01/08 06:57:49;;;;;;;8.73;1.42;;;1.20;99.90;;;;;;5031047;28;20106;-62
2022/01/08 07:00:15;;;;;;;13.40;1.85;;;1.20;99.90;;;;;;5031358;28;20068;-61
2022/01/08 07:02:40;;;;;;;4.90;1.02;;;1.20;99.90;;;;;;5030940;28;20057;-62
2022/01/08 07:05:07;;;;;;;8.68;2.95;;;1.20;99.90;;;;;;5031443;28;20029;-61
2022/01/08 07:07:32;;;;;;;8.52;1.48;;;1.10;99.90;;;;;;5030768;28;20045;-60
2022/01/08 07:09:58;;;;;;;9.05;2.78;;;1.20;99.90;;;;;;5030567;28;20128;-61
2022/01/08 07:12:23;;;;;;;4.55;1.80;;;1.10;99.90;;;;;;5031448;28;20052;-61
2022/01/08 07:14:49;;;;;;;11.50;1.98;;;1.10;99.90;;;;;;5031065;28;20491;-62
2022/01/08 07:17:14;;;;;;;6.50;1.45;;;1.10;99.90;;;;;;5031246;28;20033;-62
2022/01/08 07:19:40;;;;;;;12.23;1.98;;;1.20;99.90;;;;;;5030852;28;20120;-61
2022/01/08 07:22:06;;;;;;;7.70;1.48;;;1.10;99.90;;;;;;5030783;28;20033;-61
2022/01/08 07:24:31;;;;;;;7.35;1.10;;;1.10;99.90;;;;;;5030909;28;20033;-61
2022/01/08 07:26:57;;;;;;;7.95;1.45;;;1.20;99.90;;;;;;5030691;28;20088;-61
2022/01/08 07:29:22;;;;;;;5.97;1.13;;;1.20;99.90;;;;;;5030939;28;20586;-61
2022/01/08 07:31:48;;;;;;;6.78;0.88;;;1.20;99.90;;;;;;5030257;28;20582;-62
2022/01/08 07:34:14;;;;;;;5.40;0.95;;;1.30;99.90;;;;;;5030956;28;20385;-62
2022/01/08 07:36:39;;;;;;;4.57;1.17;;;1.30;99.90;;;;;;5030250;28;20096;-62
2022/01/08 07:39:05;;;;;;;7.50;1.48;;;1.40;99.90;;;;;;5030686;28;20140;-62
2022/01/08 07:41:30;;;;;;;8.48;1.50;;;1.40;99.90;;;;;;5028041;28;20045;-62
2022/01/08 07:43:56;;;;;;;7.22;1.50;;;1.50;99.90;;;;;;5029655;28;20088;-62
2022/01/08 07:46:22;;;;;;;12.73;2.75;;;1.50;99.90;;;;;;5030220;28;20037;-63
2022/01/08 07:48:47;;;;;;;12.68;2.28;;;1.50;99.90;;;;;;5030077;28;20049;-62
2022/01/08 07:51:13;;;;;;;8.70;1.75;;;1.50;99.90;;;;;;5028643;28;20049;-62
2022/01/08 07:53:39;;;;;;;8.70;1.83;;;1.60;99.90;;;;;;5019708;28;20048;-62
2022/01/08 07:56:04;;;;;;;12.35;3.30;;;1.70;99.90;;;;;;5028007;28;20098;-61
2022/01/08 07:58:30;;;;;;;6.72;2.50;;;1.80;99.90;;;;;;5030415;28;20124;-63
2022/01/08 08:00:55;;;;;;;7.95;2.30;;;1.70;99.90;;;;;;5030412;28;20040;-61
2022/01/08 08:03:21;;;;;;;7.88;2.35;;;1.80;99.90;;;;;;5030421;28;20048;-62
2022/01/08 08:05:47;;;;;;;11.00;2.65;;;1.80;99.90;;;;;;5029819;28;20041;-62
2022/01/08 08:08:16;;;;;;;12.75;2.30;;;1.80;99.90;;;;;;5014667;28;20030;-62
2022/01/08 08:10:42;;;;;;;11.93;3.55;;;1.90;99.90;;;;;;5010585;28;20033;-62
2022/01/08 08:13:08;;;;;;;8.70;3.00;;;1.90;99.90;;;;;;5005790;28;20375;-62
2022/01/08 08:15:33;;;;;;;11.27;3.28;;;1.90;99.90;;;;;;5020936;28;20041;-61
2022/01/08 08:17:59;;;;;;;7.78;3.53;;;1.90;99.90;;;;;;5015868;28;20030;-60
2022/01/08 08:20:24;;;;;;;10.43;3.25;;;2.00;99.90;;;;;;5015530;28;20040;-60
2022/01/08 08:22:50;;;;;;;12.52;4.30;;;2.00;99.90;;;;;;5013505;28;20029;-60
2022/01/08 08:25:16;;;;;;;18.17;3.95;;;2.00;99.90;;;;;;5017472;28;20045;-61
2022/01/08 08:27:41;;;;;;;11.35;4.38;;;2.00;99.90;;;;;;5021670;28;20099;-61
2022/01/08 08:30:09;;;;;;;9.80;3.83;;;2.00;99.90;;;;;;5023137;28;20473;-61
2022/01/08 08:32:35;;;;;;;12.00;4.63;;;2.00;99.90;;;;;;5020545;28;20037;-61
2022/01/08 08:35:00;;;;;;;9.90;3.42;;;2.10;99.90;;;;;;5017239;28;20056;-61
2022/01/08 08:37:26;;;;;;;15.55;3.53;;;2.10;99.90;;;;;;5019356;28;20029;-62
2022/01/08 08:39:51;;;;;;;9.55;3.67;;;2.10;99.90;;;;;;5016388;28;20085;-61
2022/01/08 08:42:17;;;;;;;10.35;3.88;;;2.10;99.90;;;;;;5020443;28;20032;-61
2022/01/08 08:44:42;;;;;;;10.68;3.58;;;2.20;99.90;;;;;;5024687;28;20049;-62
2022/01/08 08:47:09;;;;;;;15.02;4.47;;;2.20;99.90;;;;;;5029785;28;20366;-61
2022/01/08 08:49:35;;;;;;;10.13;4.78;;;2.20;99.90;;;;;;5029477;28;20033;-62
2022/01/08 08:52:01;;;;;;;17.80;4.15;;;2.20;99.90;;;;;;5028915;28;20481;-61
2022/01/08 08:54:26;;;;;;;14.65;4.18;;;2.20;99.90;;;;;;5029815;28;20109;-61
2022/01/08 08:56:52;;;;;;;15.10;4.70;;;2.20;99.90;;;;;;5023659;28;20049;-62
2022/01/08 08:59:18;;;;;;;13.45;3.83;;;2.20;99.90;;;;;;5025001;28;20040;-61
2022/01/08 09:01:43;;;;;;;13.50;3.92;;;2.30;99.90;;;;;;5025712;28;20141;-62
2022/01/08 09:04:09;;;;;;;17.02;5.03;;;2.30;99.90;;;;;;5028577;28;20124;-62
2022/01/08 09:06:34;;;;;;;19.05;5.78;;;2.30;99.90;;;;;;5028625;28;20145;-62
2022/01/08 09:09:00;;;;;;;12.10;3.90;;;2.30;99.90;;;;;;5027100;28;20053;-61
2022/01/08 09:11:26;;;;;;;16.10;4.70;;;2.30;99.90;;;;;;5028179;28;20390;-62
2022/01/08 09:13:52;;;;;;;12.05;4.65;;;2.40;99.90;;;;;;5025269;28;20076;-61
2022/01/08 09:16:18;;;;;;;9.57;4.05;;;2.40;99.90;;;;;;5025385;28;20065;-61
2022/01/08 09:18:44;;;;;;;12.50;4.18;;;2.40;99.90;;;;;;5026322;28;20069;-62
2022/01/08 09:21:10;;;;;;;14.77;4.80;;;2.50;99.90;;;;;;5028298;28;20049;-62
2022/01/08 09:23:37;;;;;;;12.50;4.30;;;2.50;99.90;;;;;;5028197;28;20086;-62
2022/01/08 09:26:04;;;;;;;12.52;5.00;;;2.50;99.90;;;;;;5028336;28;20034;-61
2022/01/08 09:28:30;;;;;;;15.57;4.15;;;2.50;99.90;;;;;;5027780;28;20415;-62
2022/01/08 09:30:57;;;;;;;19.52;4.65;;;2.50;99.90;;;;;;5026633;28;20029;-62
2022/01/08 09:33:24;;;;;;;15.90;4.45;;;2.60;99.90;;;;;;5032199;28;20033;-62
2022/01/08 09:35:51;;;;;;;12.13;4.32;;;2.60;99.90;;;;;;5026457;28;20540;-61
2022/01/08 09:38:16;;;;;;;13.27;4.70;;;2.70;99.90;;;;;;5031921;28;20117;-62
2022/01/08 09:40:42;;;;;;;11.23;4.25;;;2.70;99.90;;;;;;5031735;28;20046;-62
2022/01/08 09:43:08;;;;;;;13.07;4.85;;;2.70;99.90;;;;;;5029377;28;20026;-62
2022/01/08 09:45:34;;;;;;;15.68;5.80;;;2.70;99.90;;;;;;5031852;28;20044;-62
2022/01/08 09:47:59;;;;;;;10.27;3.90;;;2.80;99.90;;;;;;5031211;28;20037;-62
2022/01/08 09:50:26;;;;;;;10.85;4.63;;;2.80;99.90;;;;;;5024314;28;20029;-62
2022/01/08 09:52:57;;;;;;;10.80;4.57;;;2.90;99.90;;;;;;5031450;28;20103;-61
2022/01/08 09:55:29;;;;;;;12.13;4.63;;;2.90;99.90;;;;;;5027657;28;20125;-61
2022/01/08 09:57:55;;;;;;;13.25;4.30;;;3.00;99.90;;;;;;5023471;28;20107;-63
2022/01/08 10:00:21;;;;;;;10.88;3.97;;;3.00;99.90;;;;;;5031644;28;20099;-62
2022/01/08 10:02:48;;;;;;;7.95;4.28;;;3.00;99.90;;;;;;5029440;28;20488;-62
2022/01/08 10:05:16;;;;;;;15.52;5.28;;;3.10;99.90;;;;;;5031767;28;20025;-62
2022/01/08 10:07:43;;;;;;;8.80;4.38;;;3.10;99.90;;;;;;5031018;28;20045;-62
2022/01/08 10:10:17;;;;;;;9.98;4.15;;;3.10;99.90;;;;;;5031463;28;20400;-62
2022/01/08 10:12:59;;;;;;;15.95;5.47;;;3.10;99.90;;;;;;5031083;28;20573;-61
2022/01/08 10:18:24;;;;;;;14.13;5.28;;;3.20;99.90;;;;;;5029712;28;20156;-62
2022/01/08 10:20:51;;;;;;;9.98;5.10;;;3.10;99.90;;;;;;5030719;28;20040;-62
2022/01/08 10:23:18;;;;;;;13.20;5.00;;;3.20;99.90;;;;;;5022164;28;20041;-62
2022/01/08 10:25:54;;;;;;;12.75;4.97;;;3.20;99.90;;;;;;5031100;28;20382;-62
2022/01/08 10:28:46;;;;;;;13.50;5.30;;;3.20;99.90;;;;;;5031326;28;20048;-63
2022/01/08 10:31:21;;;;;;;15.45;5.55;;;3.20;99.90;;;;;;5028146;28;20482;-62
2022/01/08 10:33:53;;;;;;;12.70;4.53;;;3.20;99.90;;;;;;5026330;28;20052;-63
2022/01/08 10:36:24;;;;;;;12.68;4.60;;;3.30;99.90;;;;;;5033166;28;20099;-62
2022/01/08 10:38:52;;;;;;;11.70;4.22;;;3.30;99.90;;;;;;5035613;28;20053;-62
2022/01/08 10:41:19;;;;;;;12.07;4.35;;;3.40;99.90;;;;;;5033256;28;20033;-62
2022/01/08 10:43:45;;;;;;;11.32;4.72;;;3.40;99.90;;;;;;5030601;28;20042;-62
2022/01/08 10:46:17;;;;;;;13.25;5.00;;;3.50;99.90;;;;;;5029343;28;20041;-61
2022/01/08 10:48:46;;;;;;;18.92;6.93;;;3.50;99.90;;;;;;5030401;28;20610;-62
2022/01/08 10:51:18;;;;;;;12.55;5.78;;;3.60;99.90;;;;;;5030823;28;20029;-61
2022/01/08 10:54:15;;;;;;;21.50;6.80;;;3.60;99.90;;;;;;5030982;28;20095;-63
2022/01/08 10:56:42;;;;;;;17.10;6.22;;;3.70;99.90;;;;;;5027782;28;20121;-62
2022/01/08 10:59:09;;;;;;;14.00;5.00;;;3.70;99.90;;;;;;5032787;28;20040;-62
2022/01/08 11:01:50;;;;;;;12.07;5.75;;;3.80;99.90;;;;;;5031274;28;20046;-62
2022/01/08 11:04:39;;;;;;;25.35;6.47;;;3.70;99.90;;;;;;5031146;28;20091;-61
2022/01/08 11:07:09;;;;;;;16.05;6.18;;;3.80;99.90;;;;;;5026849;28;20504;-62
2022/01/08 11:09:36;;;;;;;11.85;5.60;;;3.70;99.90;;;;;;5031363;28;20037;-61
2022/01/08 11:12:03;;;;;;;14.15;5.47;;;3.70;99.90;;;;;;5030631;28;20030;-62
2022/01/08 11:17:31;;;;;;;22.45;5.57;;;3.70;99.90;;;;;;5022753;28;20367;-62
2022/01/08 11:20:00;;;;;;;12.80;4.97;;;3.70;99.90;;;;;;5039535;28;20033;-62
2022/01/08 11:22:29;;;;;;;17.25;5.80;;;3.80;99.90;;;;;;5030960;28;20032;-61
2022/01/08 11:25:09;;;;;;;12.05;4.57;;;3.80;99.90;;;;;;5030546;28;20034;-62
2022/01/08 11:27:52;;;;;;;16.77;4.90;;;3.90;99.90;;;;;;5031704;28;20025;-61
2022/01/08 11:30:21;;;;;;;15.60;3.95;;;4.00;99.90;;;;;;5030564;28;20034;-62
2022/01/08 11:32:49;;;;;;;11.73;4.38;;;4.00;99.90;;;;;;5030576;28;20068;-62
2022/01/08 11:35:16;;;;;;;10.55;3.67;;;4.10;99.90;;;;;;5030896;28;20026;-62
2022/01/08 11:37:49;;;;;;;9.63;3.60;;;4.10;99.90;;;;;;5030519;28;20480;-62
2022/01/08 11:40:20;;;;;;;16.92;4.85;;;4.10;99.90;;;;;;5030373;28;20029;-62
2022/01/08 11:42:46;;;;;;;12.55;4.00;;;4.10;99.90;;;;;;5028885;28;20093;-63
2022/01/08 11:45:35;;;;;;;13.10;4.75;;;4.20;99.90;;;;;;5030778;28;20107;-61
2022/01/08 11:48:04;;;;;;;9.98;3.97;;;4.20;99.90;;;;;;5025409;28;20080;-61
2022/01/08 11:50:31;;;;;;;10.30;3.75;;;4.20;99.90;;;;;;5030348;28;20090;-62
2022/01/08 11:53:28;;;;;;;13.57;3.92;;;4.20;99.90;;;;;;5030064;28;20041;-61
2022/01/08 11:56:01;;;;;;;11.30;3.35;;;4.20;99.90;;;;;;5023271;28;20045;-62
2022/01/08 11:58:36;;;;;;;12.13;4.30;;;4.10;99.90;;;;;;5022493;28;20069;-61
2022/01/08 12:01:05;;;;;;;13.15;3.63;;;4.10;99.90;;;;;;5015308;28;20861;-61
2022/01/08 12:03:48;;;;;;;8.23;3.45;;;4.10;99.90;;;;;;5020477;28;20056;-62
2022/01/08 12:06:32;;;;;;;10.95;3.50;;;4.10;99.90;;;;;;5017457;28;20034;-63
2022/01/08 12:09:27;;;;;;;10.93;3.75;;;4.10;99.90;;;;;;5014243;28;20040;-61
2022/01/08 12:11:57;;;;;;;7.55;2.95;;;4.10;99.90;;;;;;5008712;28;20057;-61
2022/01/08 12:14:38;;;;;;;10.85;3.80;;;4.20;99.90;;;;;;5019183;28;20121;-61
2022/01/08 12:17:17;;;;;;;;;;;4.20;99.90;;;;;;5026540;28;20037;-62
2022/01/08 12:19:55;;;;;;;6.50;2.85;;;4.20;99.90;;;;;;5023940;28;20004;-61
2022/01/08 12:22:20;;;;;;;11.70;3.53;;;4.10;99.90;;;;;;5019035;28;20083;-61
2022/01/08 12:24:55;;;;;;;10.93;4.00;;;4.20;99.90;;;;;;5029769;28;20045;-62
2022/01/08 12:27:33;;;;;;;8.45;3.35;;;4.10;99.90;;;;;;5011062;28;20486;-60
2022/01/08 12:30:22;;;;;;;11.32;3.78;;;4.10;99.90;;;;;;5028920;28;20140;-62
2022/01/08 12:32:52;;;;;;;7.05;2.42;;;4.10;99.90;;;;;;5016622;28;20401;-63
2022/01/08 12:35:19;;;;;;;8.43;3.40;;;4.10;99.90;;;;;;5022220;28;20482;-61
2022/01/08 12:37:49;;;;;;;8.93;3.67;;;4.10;99.90;;;;;;5028022;28;20037;-61
2022/01/08 12:40:37;;;;;;;11.27;3.50;;;4.00;99.90;;;;;;5027409;28;20025;-61
2022/01/08 12:43:35;;;;;;;9.20;4.53;;;4.00;99.90;;;;;;5018322;28;20045;-61
2022/01/08 12:46:17;;;;;;;8.40;3.65;;;3.90;99.90;;;;;;5023651;28;20044;-62
2022/01/08 12:49:18;;;;;;;8.00;2.83;;;4.00;99.90;;;;;;5028869;28;20091;-62
2022/01/08 12:51:50;;;;;;;7.45;2.67;;;3.90;99.90;;;;;;4986749;28;20043;-62
2022/01/08 12:54:18;;;;;;;10.25;2.80;;;3.90;99.90;;;;;;5015527;28;20361;-61
2022/01/08 12:56:53;;;;;;;5.30;1.98;;;3.90;99.90;;;;;;5012784;28;20505;-62
2022/01/08 12:59:19;;;;;;;7.88;2.47;;;3.90;99.90;;;;;;5022902;28;20033;-60
2022/01/08 13:01:50;;;;;;;9.90;2.10;;;3.90;99.90;;;;;;5024938;28;20033;-61
2022/01/08 13:04:19;;;;;;;4.57;2.55;;;3.90;99.90;;;;;;5028724;28;20405;-62
2022/01/08 13:06:45;;;;;;;5.00;1.90;;;3.90;99.90;;;;;;5025013;28;20057;-61
2022/01/08 13:09:11;;;;;;;5.43;1.85;;;3.90;99.90;;;;;;5029275;28;20499;-61
2022/01/08 13:11:41;;;;;;;5.53;2.30;;;3.90;99.90;;;;;;5028978;28;20393;-61
2022/01/08 13:14:19;;;;;;;6.78;2.33;;;3.90;99.90;;;;;;5029212;28;20049;-62
2022/01/08 13:16:56;;;;;;;4.60;1.80;;;3.90;99.90;;;;;;5021217;28;20045;-68
2022/01/08 13:19:29;;;;;;;6.72;1.83;;;3.80;99.90;;;;;;5029484;28;20065;-62
2022/01/08 13:22:02;;;;;;;9.25;2.55;;;3.80;99.90;;;;;;5020390;28;20065;-61
2022/01/08 13:24:32;;;;;;;11.02;1.95;;;3.80;99.90;;;;;;5028595;28;20099;-62
2022/01/08 13:27:03;;;;;;;8.00;1.83;;;3.80;99.90;;;;;;5027809;28;20103;-62
2022/01/08 13:29:40;;;;;;;6.70;2.22;;;3.80;99.90;;;;;;5028467;28;20037;-61